Home > Products > Valid Products > TAF

000
FTUS42 KTBW 180300 AAA
TAFTPA
TAF AMD
KTPA 180306Z 1803/1824 VRB03KT P6SM FEW250
     FM181500 22006KT P6SM SCT030 SCT200
     FM181900 26007KT P6SM VCTS SCT040CB SCT150=



000
FTUS42 KTBW 180100 AAA
TAFFMY
TAF AMD
KFMY 180103Z 1801/1824 VRB03KT P6SM FEW020 BKN090
     FM180600 VRB03KT P6SM VCSH SCT030 SCT250
     FM181200 VRB03KT P6SM VCTS SCT025CB SCT250
     FM181800 28006KT P6SM VCTS SCT035CB SCT250=



000
FTUS42 KTBW 180100 AAA
TAFRSW
TAF AMD
KRSW 180103Z 1801/1824 28005KT P6SM SCT040 BKN060
     FM180600 VRB03KT P6SM VCSH SCT030 SCT250
     FM181200 VRB03KT P6SM VCSH SCT025 SCT250
     FM181800 25005KT P6SM VCTS SCT035CB SCT250=



000
FTUS42 KTBW 172300
TAFRSW
TAF
KRSW 172340Z 1800/1824 28005KT P6SM SCT040 BKN060
     FM180300 VRB03KT P6SM VCSH SCT030 SCT250
     FM181200 VRB03KT P6SM VCSH SCT025 SCT250
     FM181800 25005KT P6SM VCTS SCT035CB SCT250=



000
FTUS42 KTBW 172300
TAFFMY
TAF
KFMY 172340Z 1800/1824 VRB03KT P6SM SCT015 BKN090
      TEMPO 1800/1802 BKN025
     FM180300 VRB03KT P6SM VCSH SCT030 SCT250
     FM181200 VRB03KT P6SM VCTS SCT025CB SCT250
     FM181800 28006KT P6SM VCTS SCT035CB SCT250=



000
FTUS42 KTBW 172300
TAFPIE
TAF
KPIE 172340Z 1800/1824 VRB03KT P6SM FEW020 BKN250
     FM180300 31004KT P6SM SCT250
     FM181400 14004KT P6SM FEW030 SCT250
     FM181800 35005KT P6SM VCTS SCT040CB SCT250=



000
FTUS42 KTBW 172300
TAFSRQ
TAF
KSRQ 172340Z 1800/1824 32005KT P6SM FEW020 BKN250
     FM181200 VRB03KT P6SM VCSH SCT030 SCT250
     FM181800 29006KT P6SM VCTS SCT035CB SCT250=



000
FTUS42 KTBW 172300
TAFTPA
TAF
KTPA 172340Z 1800/1824 VRB03KT P6SM FEW020 BKN250
     FM180300 VRB03KT P6SM SCT250
     FM181800 20006KT P6SM VCTS SCT040CB SCT250=



000
FTUS42 KTBW 172100 AAA
TAFSRQ
TAF AMD
KSRQ 172146Z 1722/1818 VRB03KT P6SM SCT015 BKN070
     FM180000 26007KT P6SM SCT020 BKN080 OVC250
     FM180600 VRB03KT P6SM FEW020 SCT250
     FM181400 VRB04KT P6SM SCT030 SCT250=



000
FTUS42 KTBW 172100 AAB
TAFPIE
TAF AMD
KPIE 172144Z 1722/1818 VRB05KT P6SM SCT035 BKN100 OVC250
     FM180000 28005KT P6SM SCT020 BKN250
     FM180600 00000KT P6SM FEW020 SCT250
     FM181400 05004KT P6SM SCT030 SCT250=



000
FTUS42 KTBW 172100 AAB
TAFTPA
TAF AMD
KTPA 172101Z 1721/1818 VRB03KT P6SM FEW015 SCT025 BKN250
     FM180000 25005KT P6SM SCT020 BKN250
     FM180600 00000KT P6SM FEW020 SCT250
     FM181400 VRB03KT P6SM SCT030 SCT250=



000
FTUS42 KTBW 171900 AAA
TAFPIE
TAF AMD
KPIE 171910Z 1719/1818 23006KT P6SM -RA SCT015 BKN060 OVC100
      TEMPO 1719/1721 BKN015
     FM172100 26008KT P6SM VCSH SCT035 BKN100 OVC250
     FM180000 28005KT P6SM SCT020 BKN250
     FM180600 00000KT P6SM FEW020 SCT250
     FM181400 05004KT P6SM SCT030 SCT250=



000
FTUS42 KTBW 171900 AAA
TAFTPA
TAF AMD
KTPA 171909Z 1719/1818 23006KT P6SM -RA SCT015 BKN070 OVC100
      TEMPO 1719/1721 BKN015
     FM172100 26007KT P6SM VCSH SCT035 BKN100 OVC250
     FM180000 29005KT P6SM SCT020 BKN250
     FM180600 00000KT P6SM FEW020 SCT250
     FM181400 VRB03KT P6SM SCT030 SCT250=



000
FTUS42 KTBW 171700
TAFPIE
TAF
KPIE 171727Z 1718/1818 23006KT P6SM -RA SCT015 BKN070 OVC100
     FM172000 26008KT P6SM VCSH SCT035 BKN100 OVC250
     FM180000 28005KT P6SM SCT020 BKN250
     FM180600 00000KT P6SM FEW020 SCT250
     FM181400 05004KT P6SM SCT030 SCT250=



000
FTUS42 KTBW 171700
TAFRSW
TAF
KRSW 171727Z 1718/1818 26008KT 5SM -RA VCTS SCT015CB BKN030 OVC080
      TEMPO 1718/1721 3SM RA BKN020
     FM172100 27008KT P6SM -RA SCT025 OVC070
      TEMPO 1721/1724 3SM RA BKN025
     FM180000 27005KT P6SM VCSH SCT025 BKN070 OVC250
     FM181000 VRB03KT P6SM VCSH SCT025 BKN100 OVC250=



000
FTUS42 KTBW 171700
TAFSRQ
TAF
KSRQ 171727Z 1718/1818 25007KT P6SM -RA FEW025 BKN070 OVC100
      TEMPO 1718/1721 3SM RA BKN025
     FM172100 25007KT P6SM -RA SCT025 BKN070
      TEMPO 1721/1724 3SM RA BKN025
     FM180000 26007KT P6SM VCSH SCT020 BKN080 OVC250
     FM180600 VRB03KT P6SM FEW020 SCT250
     FM181400 VRB04KT P6SM SCT030 SCT250=



000
FTUS42 KTBW 171700
TAFFMY
TAF
KFMY 171727Z 1718/1818 26008KT 5SM -RA VCTS SCT015CB BKN030 OVC080
      TEMPO 1718/1721 3SM RA BKN020
     FM172100 27008KT P6SM -RA SCT025 OVC070
      TEMPO 1721/1724 3SM RA BKN025
     FM180000 27005KT P6SM VCSH SCT025 BKN070 OVC250
     FM181000 VRB03KT P6SM VCSH SCT025 BKN100 OVC250=



000
FTUS42 KTBW 171700
TAFTPA
TAF
KTPA 171727Z 1718/1818 23006KT P6SM -RA SCT015 BKN070 OVC100
     FM172000 26007KT P6SM VCSH SCT035 BKN100 OVC250
     FM180000 29005KT P6SM SCT020 BKN250
     FM180600 00000KT P6SM FEW020 SCT250
     FM181400 VRB03KT P6SM SCT030 SCT250=



000
FTUS42 KTBW 171600 AAB
TAFPIE
TAF AMD
KPIE 171651Z 1717/1812 24007KT P6SM -RA SCT020 BKN030 OVC080
      TEMPO 1717/1719 3SM RA BKN020
     FM180000 28009KT P6SM VCTS SCT035CB BKN080
     FM180300 30005KT P6SM VCSH SCT035 BKN100=



000
FTUS42 KTBW 171500 AAA
TAFRSW
TAF AMD
KRSW 171541Z 1716/1812 27005KT P6SM -RA VCTS FEW025CB BKN060 OVC090
      TEMPO 1716/1718 2SM +RA BKN025
     FM171800 27010KT P6SM VCTS SCT020CB BKN030
     FM172300 27006KT P6SM VCTS SCT035CB BKN080
     FM180400 VRB05KT P6SM VCSH SCT035 BKN100=



000
FTUS42 KTBW 171500 AAA
TAFFMY
TAF AMD
KFMY 171540Z 1716/1812 24006KT P6SM -RA VCTS FEW025CB BKN060 OVC090
      TEMPO 1716/1718 2SM +RA BKN025
     FM171800 27010KT P6SM VCTS SCT020CB BKN030
     FM180100 26005KT P6SM VCTS SCT050CB BKN080
     FM180400 VRB05KT P6SM VCSH SCT035 BKN100=



000
FTUS42 KTBW 171500 AAA
TAFTPA
TAF AMD
KTPA 171502Z 1715/1812 20006KT 6SM -RA VCTS SCT020CB BKN035 OVC080
      TEMPO 1715/1717 3SM RA BKN025
     FM171700 24008KT P6SM VCTS SCT020CB BKN030
     FM180100 26004KT P6SM VCTS SCT025CB BKN050
     FM180300 VRB05KT P6SM VCSH SCT035 BKN100=



000
FTUS42 KTBW 171100 AAA
TAFPIE
TAF AMD
KPIE 171158Z 1712/1812 21006KT P6SM -RA VCTS SCT020CB BKN035 OVC070
      TEMPO 1712/1716 VRB15G25KT 2SM +TSRA BKN025CB
     FM171600 29007KT P6SM VCTS SCT020CB BKN030
     FM180000 28009KT P6SM VCTS SCT035CB BKN080
     FM180300 30005KT P6SM VCSH SCT035 BKN100=



000
FTUS42 KTBW 171100 CCA
TAFSRQ
TAF COR
KSRQ 171137Z 1712/1812 22007KT P6SM -RA VCTS SCT020CB BKN045 OVC070
      TEMPO 1712/1715 5SM RA BKN020
     FM171500 28008KT P6SM VCTS SCT025CB OVC070
      TEMPO 1715/1718 VRB15G25KT 3SM TSRA BKN025CB
     FM171800 28008KT P6SM VCTS SCT025CB BKN030
     FM180200 VRB03KT P6SM VCSH SCT035 BKN100=



000
FTUS42 KTBW 171100
TAFSRQ
TAF
KSRQ 171128Z 1712/1812 22007KT P6SM -RA VCTS SCT020CB BKN045 OVC070
      TEMPO 1712/1715 BKN020CB
     FM171500 28008KT P6SM VCTS SCT025CB OVC070
      TEMPO 1715/1718 VRB15G25KT 3SM TSRA BKN025CB
     FM171800 28008KT P6SM VCTS SCT025CB BKN030
     FM180200 VRB03KT P6SM VCSH SCT035 BKN100=



000
FTUS42 KTBW 171100
TAFFMY
TAF
KFMY 171128Z 1712/1812 VRB03KT P6SM VCSH SCT020 SCT090 OVC150
     FM171500 27008KT P6SM VCTS SCT020CB BKN090
     FM171800 27010KT P6SM VCTS SCT020CB BKN030
     FM180100 26005KT P6SM VCTS SCT050CB BKN080
     FM180400 VRB05KT P6SM VCSH SCT035 BKN100=



000
FTUS42 KTBW 171100
TAFPIE
TAF
KPIE 171128Z 1712/1812 21006KT P6SM -RA VCTS SCT020CB BKN035
      TEMPO 1713/1716 VRB15G25KT 3SM TSRA BKN025CB
     FM171600 29007KT P6SM VCTS SCT020CB BKN030
     FM180000 28009KT P6SM VCTS SCT035CB BKN080
     FM180300 30005KT P6SM VCSH SCT035 BKN100=



000
FTUS42 KTBW 171100
TAFTPA
TAF
KTPA 171128Z 1712/1812 22005KT P6SM -RA VCTS SCT020CB BKN035
      TEMPO 1713/1716 VRB15G25KT 3SM TSRA BKN025CB
     FM171600 24008KT P6SM VCTS SCT020CB BKN030
     FM180100 26004KT P6SM VCTS SCT025CB BKN050
     FM180300 VRB05KT P6SM VCSH SCT035 BKN100=



000
FTUS42 KTBW 171100
TAFRSW
TAF
KRSW 171128Z 1712/1812 VRB04KT P6SM VCSH SCT020 SCT090 OVC150
     FM171500 26006KT P6SM VCTS SCT020CB BKN090
     FM171800 27010KT P6SM VCTS SCT020CB BKN030
     FM172300 27006KT P6SM VCTS SCT035CB BKN080
     FM180400 VRB05KT P6SM VCSH SCT035 BKN100=



000
FTUS42 KTBW 170900 AAC
TAFPIE
TAF AMD
KPIE 170934Z 1710/1806 27011KT 2SM RA BR SCT020 BKN030
     FM170945 29005KT P6SM VCSH FEW030 BKN050 BKN100
     FM171200 27006KT P6SM VCTS SCT030CB BKN060 BKN250
     FM171500 30007KT P6SM VCTS SCT020CB BKN030
     FM180000 VRB06KT P6SM VCSH SCT035 BKN080=



000
FTUS42 KTBW 170900 AAB
TAFPIE
TAF AMD
KPIE 170909Z 1709/1806 27011KT 1SM RA BR SCT020 BKN030
     FM170930 29005KT P6SM VCSH FEW030 BKN050 BKN100
     FM171200 27006KT P6SM VCTS SCT030CB BKN060 BKN250
     FM171500 30007KT P6SM VCTS SCT020CB BKN030
     FM180000 VRB06KT P6SM VCSH SCT035 BKN080=



000
FTUS42 KTBW 170800 AAB
TAFTPA
TAF AMD
KTPA 170858Z 1709/1806 26006KT P6SM VCSH SCT020 BKN050
     FM171200 26005KT P6SM VCTS SCT030CB BKN050 BKN250
     FM171500 29007KT P6SM VCTS SCT020CB BKN030
     FM180300 VRB06KT P6SM VCSH SCT035 BKN080=



000
FTUS42 KTBW 170800 AAA
TAFPIE
TAF AMD
KPIE 170840Z 1709/1806 29005KT P6SM VCSH FEW030 BKN050 BKN100
      TEMPO 1709/1710 28010G20KT 3SM SHRA BKN030
     FM171200 27006KT P6SM VCTS SCT030CB BKN060 BKN250
     FM171500 30007KT P6SM VCTS SCT020CB BKN030
     FM180000 VRB06KT P6SM VCSH SCT035 BKN080=



000
FTUS42 KTBW 170800 AAA
TAFRSW
TAF AMD
KRSW 170836Z 1709/1806 VRB03KT P6SM VCSH FEW025 BKN090 BKN250
     FM171200 00000KT P6SM VCTS SCT035CB BKN250
     FM171800 27010KT P6SM VCTS SCT020CB BKN030
     FM172300 24006KT P6SM VCTS SCT035CB BKN060=



000
FTUS42 KTBW 170800 AAA
TAFFMY
TAF AMD
KFMY 170835Z 1709/1806 VRB04KT P6SM VCSH FEW025 BKN100 BKN250
     FM171200 VRB03KT P6SM VCTS SCT035CB BKN250
     FM171800 27008KT P6SM VCTS SCT020CB BKN030
     FM180200 23004KT P6SM VCTS SCT035CB BKN060=



000
FTUS42 KTBW 170800 AAA
TAFTPA
TAF AMD
KTPA 170828Z 1708/1806 26005KT P6SM VCSH SCT030 BKN060
      TEMPO 1708/1709 28010G20KT 3SM SHRA SCT020 BKN030
     FM171200 26005KT P6SM VCTS SCT030CB BKN050 BKN250
     FM171500 29007KT P6SM VCTS SCT020CB BKN030
     FM180300 VRB06KT P6SM VCSH SCT035 BKN080=



000
FTUS42 KTBW 170500
TAFRSW
TAF
KRSW 170538Z 1706/1806 00000KT P6SM BKN090 BKN250
     FM171200 00000KT P6SM VCTS SCT035CB BKN250
     FM171800 27010KT P6SM VCTS SCT020CB BKN030
     FM172300 24006KT P6SM VCTS SCT035CB BKN060=



000
FTUS42 KTBW 170500
TAFSRQ
TAF
KSRQ 170538Z 1706/1806 VRB06KT P6SM VCSH BKN080 BKN250
     FM171200 26007KT P6SM VCTS SCT035CB BKN250
     FM171800 28007KT P6SM VCTS SCT020 BKN030CB
     FM180200 VRB03KT P6SM VCTS SCT035CB BKN080=



000
FTUS42 KTBW 170500
TAFPIE
TAF
KPIE 170538Z 1706/1806 23005KT P6SM VCSH BKN060 BKN250
     FM171200 27006KT P6SM VCTS SCT030CB BKN060 BKN250
     FM171500 30007KT P6SM VCTS SCT020CB BKN030
     FM180000 VRB06KT P6SM VCSH SCT035 BKN080=



000
FTUS42 KTBW 170500
TAFFMY
TAF
KFMY 170538Z 1706/1806 VRB04KT P6SM BKN100 BKN250
     FM171200 VRB03KT P6SM VCTS SCT035CB BKN250
     FM171800 27008KT P6SM VCTS SCT020CB BKN030
     FM180200 23004KT P6SM VCTS SCT035CB BKN060=



000
FTUS42 KTBW 170500
TAFTPA
TAF
KTPA 170538Z 1706/1806 22005KT P6SM VCSH BKN060 BKN250
     FM171200 26005KT P6SM VCTS SCT030CB BKN050 BKN250
     FM171500 29007KT P6SM VCTS SCT020CB BKN030
     FM180300 VRB06KT P6SM VCSH SCT035 BKN080=



000
FTUS42 KTBW 170200 AAA
TAFTPA
TAF AMD
KTPA 170300Z 1703/1724 28007KT P6SM FEW030 SCT100 BKN150
     FM170600 25006KT P6SM VCTS SCT035CB BKN250
     FM171200 26005KT P6SM VCTS BKN035CB OVC100
     FM171700 27008KT P6SM VCTS BKN030CB OVC100
     FM172200 29006KT P6SM VCTS SCT025CB BKN050 OVC100=



000
FTUS42 KTBW 162300
TAFTPA
TAF
KTPA 162329Z 1700/1724 28007KT P6SM VCSH FEW030 SCT100 BKN150
     FM170600 25006KT P6SM VCTS SCT035CB BKN250
     FM171200 26005KT P6SM VCTS BKN035CB OVC100
     FM171700 27008KT P6SM VCTS BKN030CB OVC100
     FM172200 29006KT P6SM VCTS SCT025CB BKN050 OVC100=



000
FTUS42 KTBW 162300
TAFFMY
TAF
KFMY 162329Z 1700/1724 30008KT P6SM VCSH SCT050 BKN100
     FM170600 VRB03KT P6SM VCTS SCT035CB BKN250
     FM171400 28007KT P6SM VCTS SCT035CB BKN250
     FM171800 26009KT P6SM VCTS SCT035CB BKN200
     FM172200 28008KT P6SM VCTS SCT025CB BKN050 OVC100=



000
FTUS42 KTBW 162300
TAFRSW
TAF
KRSW 162329Z 1700/1724 31005KT P6SM VCSH SCT050 BKN100
     FM170600 VRB03KT P6SM VCTS SCT035CB BKN250
     FM171400 25007KT P6SM VCTS SCT035CB BKN250
     FM171800 26009KT P6SM VCTS SCT035CB BKN200
     FM172200 28008KT P6SM VCTS SCT025CB BKN050 OVC100=



000
FTUS42 KTBW 162300
TAFSRQ
TAF
KSRQ 162329Z 1700/1724 33009KT P6SM VCSH SCT050 BKN100
     FM170600 25006KT P6SM VCTS SCT035CB BKN250
     FM171200 27005KT P6SM VCTS BKN035CB OVC100
     FM171700 28008KT P6SM VCTS BKN030CB OVC100
     FM172200 29006KT P6SM VCTS SCT025CB BKN050 OVC100=



000
FTUS42 KTBW 162300
TAFPIE
TAF
KPIE 162329Z 1700/1724 28007KT P6SM VCSH FEW030 SCT100 BKN150
     FM170600 27006KT P6SM VCTS SCT035CB BKN250
     FM171200 26005KT P6SM VCTS BKN035CB OVC100
     FM171700 27008KT P6SM VCTS BKN030CB OVC100
     FM172200 30006KT P6SM VCTS SCT025CB BKN050 OVC100=



000
FTUS42 KTBW 162100 AAA
TAFTPA
TAF AMD
KTPA 162102Z 1621/1718 29009KT P6SM VCTS SCT035CB BKN100 OVC200
      TEMPO 1621/1623 VRB15G25KT 3SM TSRA BKN030CB BKN100
     FM170000 25007KT P6SM VCTS SCT030CB BKN100 OVC150
     FM171500 26007KT P6SM VCTS SCT020CB BKN050 OVC100=



000
FTUS42 KTBW 161900 AAA
TAFPIE
TAF AMD
KPIE 161948Z 1620/1718 29008KT P6SM VCTS SCT030CB BKN100 OVC200
      TEMPO 1620/1622 VRB15G25KT 3SM +TSRA BKN025CB
     FM170000 28008KT P6SM VCTS SCT030CB BKN100 OVC150
     FM171500 26007KT P6SM VCTS SCT020CB BKN050 OVC100=



000
FTUS42 KTBW 161700
TAFPIE
TAF
KPIE 161733Z 1618/1718 29008KT P6SM VCTS SCT030CB BKN100 OVC200
     FM170000 28008KT P6SM VCTS SCT030CB BKN100 OVC150
     FM171500 26007KT P6SM VCTS SCT020CB BKN050 OVC100=



000
FTUS42 KTBW 161700
TAFFMY
TAF
KFMY 161733Z 1618/1718 30005KT P6SM VCTS BKN040CB
     FM162000 30007KT P6SM VCTS SCT045CB SCT100 BKN250
     FM170000 29006KT P6SM VCTS SCT035CB SCT100 OVC200
     FM171500 27006KT P6SM VCTS SCT025CB BKN100 OVC150=



000
FTUS42 KTBW 161700
TAFTPA
TAF
KTPA 161733Z 1618/1718 26009KT P6SM VCTS SCT035CB BKN100 OVC200
     FM170000 25007KT P6SM VCTS SCT030CB BKN100 OVC150
     FM171500 26007KT P6SM VCTS SCT020CB BKN050 OVC100=



000
FTUS42 KTBW 161700
TAFSRQ
TAF
KSRQ 161733Z 1618/1718 27008KT P6SM VCTS SCT035CB BKN100 OVC250
     FM170000 28005KT P6SM VCTS SCT035CB BKN100 OVC150
     FM171500 27008KT P6SM VCTS SCT030CB BKN050 OVC100=



000
FTUS42 KTBW 161700
TAFRSW
TAF
KRSW 161733Z 1618/1718 32004KT P6SM VCTS BKN045CB
     FM162000 29006KT P6SM VCTS SCT045CB SCT100 BKN250
     FM170000 29005KT P6SM VCTS SCT035CB SCT100 OVC200
     FM171500 27007KT P6SM VCTS SCT025CB BKN100 OVC150=



000
FTUS42 KTBW 161500 AAA
TAFTPA
TAF AMD
KTPA 161501Z 1615/1712 25005KT P6SM FEW030 SCT120 BKN250
     FM161700 26005KT P6SM VCSH SCT050 BKN120
     FM161900 26008KT P6SM VCTS BKN035CB
     FM170400 25005KT P6SM VCSH BKN060=



000
FTUS42 KTBW 161100
TAFSRQ
TAF
KSRQ 161123Z 1612/1712 34007KT P6SM BKN120 BKN250
     FM161800 29008KT P6SM VCTS BKN050CB BKN250
     FM170300 27004KT P6SM VCSH BKN060=



000
FTUS42 KTBW 161100
TAFTPA
TAF
KTPA 161123Z 1612/1712 18006KT P6SM BKN120 BKN250
     FM161600 26005KT P6SM VCSH SCT050 BKN150
     FM161900 26007KT P6SM VCTS BKN035CB
     FM170400 25005KT P6SM VCSH BKN060=



000
FTUS42 KTBW 161100
TAFRSW
TAF
KRSW 161123Z 1612/1712 VRB03KT P6SM BKN120 BKN250
     FM161800 28005KT P6SM VCTS BKN050CB
     FM170200 VRB02KT P6SM SCT050 BKN250=



000
FTUS42 KTBW 161100
TAFPIE
TAF
KPIE 161123Z 1612/1712 02004KT P6SM BKN120 BKN250
     FM161600 30005KT P6SM VCSH SCT050 BKN150
     FM161900 29006KT P6SM VCTS BKN035CB BKN250
     FM170400 27003KT P6SM VCSH BKN060=



000
FTUS42 KTBW 161100
TAFFMY
TAF
KFMY 161123Z 1612/1712 33004KT P6SM BKN120 BKN250
     FM161800 30005KT P6SM VCTS BKN050CB
     FM170200 VRB02KT P6SM SCT050 BKN250=



000
FTUS42 KTBW 160800 AAA
TAFTPA
TAF AMD
KTPA 160854Z 1609/1706 VRB02KT P6SM BKN150
     FM161500 25006KT P6SM VCSH SCT100 BKN250
     FM161800 26007KT P6SM VCTS SCT035CB BKN250
     FM170000 29005KT P6SM VCTS BKN050CB BKN250=



000
FTUS42 KTBW 160500
TAFFMY
TAF
KFMY 160536Z 1606/1706 07003KT P6SM SCT050 BKN150
     FM161500 31005KT P6SM SCT035 BKN250
     FM162100 32008KT P6SM VCTS SCT035CB SCT250
     FM170400 VRB03KT P6SM SCT035 BKN250=



000
FTUS42 KTBW 160500
TAFTPA
TAF
KTPA 160536Z 1606/1706 VRB02KT P6SM FEW150 SCT250
     FM161500 25006KT P6SM SCT035 BKN250
     FM161800 26007KT P6SM VCTS SCT035CB BKN250
     FM170000 29005KT P6SM VCTS BKN070CB BKN250=



000
FTUS42 KTBW 160500
TAFSRQ
TAF
KSRQ 160536Z 1606/1706 VRB05KT P6SM FEW150 SCT250
     FM161100 04006KT P6SM SCT250
     FM161500 31008KT P6SM SCT035 BKN250
     FM162100 31007KT P6SM VCTS SCT035CB BKN250
     FM170000 31006KT P6SM VCTS SCT035CB BKN250=



000
FTUS42 KTBW 160500
TAFPIE
TAF
KPIE 160536Z 1606/1706 34003KT P6SM BKN100
     FM161500 02004KT P6SM SCT035 BKN250
     FM161700 30005KT P6SM VCTS SCT035CB BKN250
     FM170000 29005KT P6SM VCTS BKN035CB BKN250=



000
FTUS42 KTBW 160500
TAFRSW
TAF
KRSW 160536Z 1606/1706 07003KT P6SM SCT050 BKN150
     FM161500 30004KT P6SM SCT035 BKN250
     FM162100 35007KT P6SM VCTS SCT035CB BKN250
     FM170400 31005KT P6SM SCT035 BKN200=



000
FTUS42 KTBW 160200 AAA
TAFTPA
TAF AMD
KTPA 160300Z 1603/1624 VRB03KT P6SM SCT150
     FM161500 25006KT P6SM FEW050 BKN250
     FM161800 28007KT P6SM VCTS SCT040CB BKN250=



000
FTUS42 KTBW 152300
TAFFMY
TAF
KFMY 152337Z 1600/1624 09005KT P6SM FEW050 SCT250
     FM160200 VRB03KT P6SM FEW250
     FM161500 10005KT P6SM FEW040 SCT250
     FM161800 31006KT P6SM FEW040 SCT250=



000
FTUS42 KTBW 152300
TAFRSW
TAF
KRSW 152337Z 1600/1624 09006KT P6SM FEW040 SCT250
     FM160200 VRB03KT P6SM FEW250
     FM161500 14005KT P6SM FEW040 SCT250
     FM161800 28006KT P6SM FEW040 SCT250=



000
FTUS42 KTBW 152300
TAFTPA
TAF
KTPA 152337Z 1600/1624 29007KT P6SM FEW040 BKN250
     FM160200 VRB03KT P6SM SCT250
     FM161500 25006KT P6SM FEW050 BKN250
     FM161800 28007KT P6SM VCTS SCT040CB BKN250=



000
FTUS42 KTBW 152300
TAFPIE
TAF
KPIE 152337Z 1600/1624 28005KT P6SM FEW040 BKN250
     FM160200 VRB03KT P6SM SCT250
     FM161500 03005KT P6SM FEW050 BKN250
     FM161800 32007KT P6SM VCTS SCT040CB BKN250=



000
FTUS42 KTBW 152300
TAFSRQ
TAF
KSRQ 152337Z 1600/1624 30006KT P6SM FEW040 SCT250
     FM160200 VRB03KT P6SM SCT250
     FM161500 27006KT P6SM FEW050 BKN250
     FM161800 28008KT P6SM VCTS SCT040CB BKN250=



000
FTUS42 KTBW 152100 AAA
TAFTPA
TAF AMD
KTPA 152102Z 1521/1618 27008KT P6SM VCSH SCT040 SCT120 BKN250
     FM160000 31005KT P6SM FEW040 SCT250
     FM160200 VRB03KT P6SM SCT250
     FM161500 25006KT P6SM FEW050 BKN250=



000
FTUS42 KTBW 151700
TAFTPA
TAF
KTPA 151736Z 1518/1618 23007KT P6SM VCTS SCT035CB SCT200
     FM152100 27008KT P6SM VCSH SCT040 SCT120 SCT250
     FM160000 31005KT P6SM FEW040 SCT250
     FM160200 VRB03KT P6SM SCT250
     FM161500 25006KT P6SM FEW050 BKN250=



000
FTUS42 KTBW 151700
TAFPIE
TAF
KPIE 151736Z 1518/1618 VRB05KT P6SM VCTS SCT035CB SCT120
     FM152100 29008KT P6SM VCSH SCT040 SCT120 SCT250
     FM160000 31005KT P6SM FEW040 SCT250
     FM160200 VRB03KT P6SM SCT250
     FM161500 VRB05KT P6SM FEW050 BKN250=



000
FTUS42 KTBW 151700
TAFFMY
TAF
KFMY 151736Z 1518/1618 10006KT P6SM SCT040 SCT120
     FM152000 09006KT P6SM VCTS SCT030 BKN050CB
     FM160200 VRB03KT P6SM VCSH SCT050 SCT250
     FM160400 VRB03KT P6SM SCT250=



000
FTUS42 KTBW 151700
TAFSRQ
TAF
KSRQ 151736Z 1518/1618 24008KT P6SM VCTS SCT035CB SCT120
     FM152100 27009KT P6SM VCSH SCT040 SCT120 SCT250
     FM160000 31005KT P6SM FEW040 SCT250
     FM160200 VRB03KT P6SM SCT250
     FM161500 27006KT P6SM FEW050 BKN250=



000
FTUS42 KTBW 151700
TAFRSW
TAF
KRSW 151736Z 1518/1618 10006KT P6SM SCT040 SCT120
     FM152000 09006KT P6SM VCTS SCT030 BKN050CB
     FM160200 VRB03KT P6SM VCSH SCT050 SCT250
     FM160400 VRB03KT P6SM SCT250=



000
FTUS42 KTBW 151500 AAA
TAFTPA
TAF AMD
KTPA 151509Z 1515/1612 16006KT P6SM FEW025 SCT150
     FM151700 23007KT P6SM VCTS SCT035CB SCT200
     FM152100 27008KT P6SM SCT040 SCT120 SCT250
     FM160000 31005KT P6SM FEW040 SCT250
     FM160200 VRB03KT P6SM SCT250=



000
FTUS42 KTBW 151100
TAFSRQ
TAF
KSRQ 151120Z 1512/1612 11004KT P6SM FEW020 SCT120
     FM151400 14006KT P6SM SCT025 SCT120
     FM151800 24008KT P6SM VCTS SCT035CB SCT120
     FM152100 27009KT P6SM SCT040 SCT120 SCT250
     FM160000 31005KT P6SM FEW040 SCT250
     FM160200 VRB03KT P6SM SCT250=



000
FTUS42 KTBW 151100
TAFTPA
TAF
KTPA 151120Z 1512/1612 VRB03KT P6SM FEW020 SCT120
     FM151400 16005KT P6SM SCT025 SCT120
     FM151700 23006KT P6SM VCTS SCT035CB SCT120
     FM152100 27008KT P6SM SCT040 SCT120 SCT250
     FM160000 31005KT P6SM FEW040 SCT250
     FM160200 VRB03KT P6SM SCT250=



000
FTUS42 KTBW 151100
TAFRSW
TAF
KRSW 151120Z 1512/1612 VRB03KT P6SM FEW020 SCT120
     FM151400 11006KT P6SM SCT025 SCT120
     FM151700 10006KT P6SM SCT040 SCT120
     FM152000 09006KT P6SM VCTS SCT030 BKN050CB
     FM160200 VRB03KT P6SM SCT050 SCT250
     FM160400 VRB03KT P6SM SCT250=



000
FTUS42 KTBW 151100
TAFFMY
TAF
KFMY 151120Z 1512/1612 VRB03KT P6SM FEW020 SCT120
     FM151400 11006KT P6SM SCT025 SCT120
     FM151700 10006KT P6SM SCT040 SCT120
     FM152000 09006KT P6SM VCTS SCT030 BKN050CB
     FM160200 VRB03KT P6SM SCT050 SCT250
     FM160400 VRB03KT P6SM SCT250=



000
FTUS42 KTBW 151100
TAFPIE
TAF
KPIE 151120Z 1512/1612 VRB04KT P6SM FEW020 SCT120
     FM151400 12006KT P6SM SCT025 SCT120
     FM151700 VRB05KT P6SM VCTS SCT035CB SCT120
     FM152000 29008KT P6SM SCT040 SCT120 SCT250
     FM160000 31005KT P6SM FEW040 SCT250
     FM160200 VRB03KT P6SM SCT250=



000
FTUS42 KTBW 150900 AAA
TAFTPA
TAF AMD
KTPA 150908Z 1509/1606 VRB03KT P6SM FEW020 SCT120
     FM151400 16005KT P6SM SCT025 SCT120
     FM151700 23006KT P6SM VCTS SCT035CB SCT120
     FM152100 27008KT P6SM SCT040 SCT120 SCT250
     FM160000 31005KT P6SM FEW040 SCT250
     FM160200 VRB03KT P6SM SCT250=



000
FTUS42 KTBW 150500 RRA
TAFRSW
TAF
KRSW 150541Z 1506/1606 VRB03KT P6SM FEW020 SCT120
     FM151400 11006KT P6SM SCT025 SCT120
     FM151700 10006KT P6SM SCT040 SCT120
     FM152000 09006KT P6SM VCTS SCT030 BKN050CB
     FM160200 VRB03KT P6SM SCT050 SCT250
     FM160400 VRB03KT P6SM SCT250=



000
FTUS42 KTBW 150500 RRA
TAFTPA
TAF
KTPA 150541Z 1506/1606 VRB03KT P6SM FEW020 SCT120
     FM151400 16005KT P6SM SCT025 SCT120
     FM151700 23006KT P6SM VCTS SCT035CB SCT120
     FM152100 27008KT P6SM SCT040 SCT120 SCT250
     FM160000 31005KT P6SM FEW040 SCT250
     FM160200 VRB03KT P6SM SCT250=



000
FTUS42 KTBW 150500 RRA
TAFSRQ
TAF
KSRQ 150541Z 1506/1606 11004KT P6SM FEW020 SCT120
     FM151400 14006KT P6SM SCT025 SCT120
     FM151800 24008KT P6SM VCTS SCT035CB SCT120
     FM152100 27009KT P6SM SCT040 SCT120 SCT250
     FM160000 31005KT P6SM FEW040 SCT250
     FM160200 VRB03KT P6SM SCT250=



000
FTUS42 KTBW 150500 RRA
TAFFMY
TAF
KFMY 150541Z 1506/1606 VRB03KT P6SM FEW020 SCT120
     FM151400 11006KT P6SM SCT025 SCT120
     FM151700 10006KT P6SM SCT040 SCT120
     FM152000 09006KT P6SM VCTS SCT030 BKN050CB
     FM160200 VRB03KT P6SM SCT050 SCT250
     FM160400 VRB03KT P6SM SCT250=



000
FTUS42 KTBW 150500 RRA
TAFPIE
TAF
KPIE 150541Z 1506/1606 VRB05KT P6SM VCSH SCT015 BKN100
      TEMPO 1506/1507 BKN015
     FM150800 VRB04KT P6SM FEW020 SCT120
     FM151400 12006KT P6SM SCT025 SCT120
     FM151700 VRB05KT P6SM VCTS SCT035CB SCT120
     FM152000 29008KT P6SM SCT040 SCT120 SCT250
     FM160000 31005KT P6SM FEW040 SCT250
     FM160200 VRB03KT P6SM SCT250=



    US Dept of Commerce
    National Oceanic and Atmospheric Administration
    National Weather Service
    1325 East West Highway
    Silver Spring, MD 20910
    Page Author: NWS Internet Services Team
Disclaimer
Information Quality
Credits
Glossary
Privacy Policy
Freedom of Information Act (FOIA)
About Us
Career Opportunities